Time;durP1;ratioP1;P1;durP2;ratioP2;P2;SDS_P1;SDS_P2;PMS_P1;PMS_P2;Temp;Humidity;BMP_temperature;BMP_pressure;BME280_temperature;BME280_humidity;BME280_pressure;Samples;Min_cycle;Max_cycle;Signal;HPM_P1;HPM_P2
2023/10/26 00:01:57;;;;;;;1.70;1.60;;;21.50;44.10;;;;;;4973233;28;20227;-83
2023/10/26 00:04:22;;;;;;;1.67;1.57;;;21.50;44.10;;;;;;4969508;28;20466;-85
2023/10/26 00:06:48;;;;;;;2.20;1.80;;;21.50;44.10;;;;;;4975244;28;20223;-83
2023/10/26 00:09:14;;;;;;;1.80;1.70;;;21.50;44.10;;;;;;4973559;28;20325;-84
2023/10/26 00:11:39;;;;;;;1.70;1.60;;;21.40;44.00;;;;;;4971387;28;20247;-84
2023/10/26 00:14:05;;;;;;;1.73;1.63;;;21.50;44.10;;;;;;4970726;28;20220;-86
2023/10/26 00:16:31;;;;;;;1.90;1.50;;;21.40;44.00;;;;;;4972431;28;20784;-83
2023/10/26 00:18:56;;;;;;;1.63;1.53;;;21.40;44.00;;;;;;4974545;28;20228;-87
2023/10/26 00:21:22;;;;;;;1.50;1.40;;;21.50;44.10;;;;;;4973922;28;20224;-87
2023/10/26 00:23:47;;;;;;;1.97;1.67;;;21.40;44.00;;;;;;4958699;28;20236;-84
2023/10/26 00:26:13;;;;;;;1.90;1.80;;;21.40;44.00;;;;;;4973212;28;20229;-84
2023/10/26 00:28:39;;;;;;;1.50;1.40;;;21.50;44.10;;;;;;4973901;28;20746;-86
2023/10/26 00:31:05;;;;;;;1.63;1.53;;;21.40;44.00;;;;;;4972242;28;21115;-87
2023/10/26 00:33:30;;;;;;;1.60;1.50;;;21.40;44.10;;;;;;4959968;28;20582;-86
2023/10/26 00:35:56;;;;;;;1.57;1.47;;;21.40;44.00;;;;;;4967552;28;20846;-86
2023/10/26 00:38:21;;;;;;;2.33;1.90;;;21.40;44.00;;;;;;4955196;28;20283;-87
2023/10/26 00:40:47;;;;;;;1.50;1.40;;;21.40;44.00;;;;;;4971468;28;20251;-85
2023/10/26 00:43:24;;;;;;;1.83;1.73;;;21.40;44.00;;;;;;4984365;28;20227;-84
2023/10/26 00:45:53;;;;;;;1.70;1.60;;;21.40;44.00;;;;;;4971036;28;20315;-86
2023/10/26 00:48:20;;;;;;;1.80;1.70;;;21.40;44.10;;;;;;4970170;28;20466;-84
2023/10/26 00:50:47;;;;;;;1.90;1.80;;;21.40;44.00;;;;;;4971240;28;20444;-83
2023/10/26 00:53:15;;;;;;;2.30;2.20;;;21.40;44.10;;;;;;4968225;28;20451;-86
2023/10/26 00:55:41;;;;;;;1.60;1.50;;;21.40;44.10;;;;;;4971388;28;20549;-84
2023/10/26 00:58:09;;;;;;;1.60;1.50;;;21.40;44.00;;;;;;4967785;28;20474;-84
2023/10/26 01:00:34;;;;;;;1.70;1.60;;;21.40;44.10;;;;;;4970656;28;21310;-84
2023/10/26 01:03:00;;;;;;;1.50;1.40;;;21.40;44.10;;;;;;4969642;28;20466;-84
2023/10/26 01:05:25;;;;;;;2.80;1.47;;;21.40;44.80;;;;;;4970742;28;20229;-83
2023/10/26 01:07:51;;;;;;;1.77;1.67;;;21.40;44.10;;;;;;4968862;28;20239;-84
2023/10/26 01:10:17;;;;;;;1.60;1.50;;;21.40;44.10;;;;;;4974224;28;20230;-84
2023/10/26 01:12:42;;;;;;;1.80;1.70;;;21.40;44.00;;;;;;4973074;28;20231;-84
2023/10/26 01:15:08;;;;;;;1.40;1.30;;;21.40;44.10;;;;;;4950330;28;20216;-84
2023/10/26 01:17:35;;;;;;;1.80;1.70;;;21.40;44.10;;;;;;4972844;28;20323;-83
2023/10/26 01:20:01;;;;;;;1.60;1.50;;;21.40;44.90;;;;;;4969088;28;20302;-83
2023/10/26 01:22:31;;;;;;;1.40;1.30;;;21.40;44.10;;;;;;4969251;28;20458;-87
2023/10/26 01:24:57;;;;;;;1.50;1.40;;;21.40;44.10;;;;;;4970752;28;20525;-83
2023/10/26 01:27:22;;;;;;;1.60;1.50;;;21.40;44.10;;;;;;4970081;28;20545;-83
2023/10/26 01:29:48;;;;;;;1.60;1.50;;;21.40;44.10;;;;;;4971311;28;20303;-83
2023/10/26 01:32:13;;;;;;;1.53;1.43;;;21.40;44.10;;;;;;4972121;28;20295;-84
2023/10/26 01:34:40;;;;;;;1.70;1.50;;;21.40;44.10;;;;;;4955810;28;20259;-88
2023/10/26 01:37:05;;;;;;;1.70;1.60;;;21.40;44.10;;;;;;4970738;28;20330;-84
2023/10/26 01:39:32;;;;;;;1.50;1.40;;;21.40;44.10;;;;;;4972483;28;21052;-84
2023/10/26 01:41:57;;;;;;;1.43;1.33;;;21.40;44.10;;;;;;4970759;28;20278;-85
2023/10/26 01:44:23;;;;;;;1.93;1.40;;;21.40;44.10;;;;;;4945641;28;20460;-84
2023/10/26 01:46:48;;;;;;;1.70;1.60;;;21.40;44.10;;;;;;4972429;28;20221;-86
2023/10/26 01:49:14;;;;;;;1.40;1.30;;;21.40;44.10;;;;;;4966891;28;20212;-84
2023/10/26 01:51:40;;;;;;;1.70;1.60;;;21.40;44.10;;;;;;4972642;28;20601;-84
2023/10/26 01:54:05;;;;;;;1.27;1.17;;;21.40;44.10;;;;;;4968928;28;20730;-87
2023/10/26 01:56:31;;;;;;;1.50;1.40;;;21.40;44.10;;;;;;4971548;28;20294;-84
2023/10/26 01:58:57;;;;;;;1.60;1.50;;;21.40;44.10;;;;;;4971917;28;20235;-85
2023/10/26 02:01:24;;;;;;;1.53;1.43;;;21.40;44.10;;;;;;4967866;28;20220;-84
2023/10/26 02:03:50;;;;;;;1.40;1.30;;;21.40;44.10;;;;;;4971856;28;20497;-84
2023/10/26 02:06:15;;;;;;;1.40;1.30;;;21.40;44.10;;;;;;4969378;28;20929;-86
2023/10/26 02:08:41;;;;;;;1.57;1.47;;;21.40;44.10;;;;;;4971051;28;20542;-84
2023/10/26 02:11:07;;;;;;;1.50;1.40;;;21.40;44.10;;;;;;4970269;28;20228;-84
2023/10/26 02:13:35;;;;;;;1.33;1.23;;;21.40;44.10;;;;;;4957959;28;20223;-84
2023/10/26 02:16:01;;;;;;;1.70;1.60;;;21.40;44.10;;;;;;4970310;28;20248;-87
2023/10/26 02:18:28;;;;;;;1.30;1.20;;;21.40;44.10;;;;;;4971195;28;20908;-84
2023/10/26 02:20:54;;;;;;;1.50;1.40;;;21.40;44.10;;;;;;4984792;28;20798;-84
2023/10/26 02:23:21;;;;;;;1.83;1.27;;;21.40;44.10;;;;;;4971295;28;20448;-85
2023/10/26 02:25:46;;;;;;;1.37;1.27;;;21.40;44.10;;;;;;4965393;28;20236;-86
2023/10/26 02:28:15;;;;;;;1.40;1.30;;;21.40;44.00;;;;;;4968378;28;20466;-83
2023/10/26 02:30:44;;;;;;;1.37;1.27;;;21.40;44.00;;;;;;4952343;28;20675;-84
2023/10/26 02:33:10;;;;;;;2.17;1.50;;;21.40;44.00;;;;;;4985900;28;20474;-85
2023/10/26 02:35:38;;;;;;;1.47;1.37;;;21.40;44.10;;;;;;4968288;28;20462;-83
2023/10/26 02:38:03;;;;;;;2.13;1.30;;;21.40;44.00;;;;;;4970529;28;20231;-83
2023/10/26 02:40:29;;;;;;;1.30;1.20;;;21.40;44.10;;;;;;4947772;28;20481;-84
2023/10/26 02:42:54;;;;;;;1.40;1.30;;;21.40;44.10;;;;;;4969429;28;21069;-87
2023/10/26 02:45:20;;;;;;;2.30;1.20;;;21.40;44.00;;;;;;4970595;28;20280;-83
2023/10/26 02:47:45;;;;;;;1.30;1.20;;;21.40;44.00;;;;;;4956328;28;20696;-84
2023/10/26 02:50:11;;;;;;;1.40;1.30;;;21.40;44.10;;;;;;4970980;28;20259;-86
2023/10/26 02:52:37;;;;;;;1.50;1.40;;;21.40;44.00;;;;;;4971950;28;20239;-84
2023/10/26 02:55:04;;;;;;;1.30;1.20;;;21.40;44.10;;;;;;4970945;28;20277;-85
2023/10/26 02:57:30;;;;;;;1.73;1.40;;;21.40;44.00;;;;;;4970684;28;20470;-84
2023/10/26 02:59:55;;;;;;;1.40;1.30;;;21.40;44.00;;;;;;4956399;28;20478;-85
2023/10/26 03:02:21;;;;;;;1.50;1.40;;;21.40;44.10;;;;;;4969795;28;20234;-85
2023/10/26 03:04:46;;;;;;;1.37;1.27;;;21.40;44.00;;;;;;4956130;28;20285;-85
2023/10/26 03:07:12;;;;;;;1.50;1.40;;;21.40;44.00;;;;;;4956565;28;20328;-84
2023/10/26 03:09:38;;;;;;;1.30;1.20;;;21.40;44.10;;;;;;4955585;28;21447;-83
2023/10/26 03:12:04;;;;;;;1.20;1.10;;;21.40;44.00;;;;;;4973749;28;20286;-84
2023/10/26 03:14:29;;;;;;;1.27;1.17;;;21.40;44.00;;;;;;4973757;28;20240;-84
2023/10/26 03:16:55;;;;;;;1.13;1.13;;;21.40;44.00;;;;;;4970883;28;20255;-84
2023/10/26 03:19:20;;;;;;;1.23;1.13;;;21.40;44.10;;;;;;4973264;28;20327;-85
2023/10/26 03:21:46;;;;;;;1.43;1.33;;;21.40;44.20;;;;;;4974620;28;20231;-85
2023/10/26 03:24:12;;;;;;;2.33;1.13;;;21.40;44.00;;;;;;4953227;28;20288;-84
2023/10/26 03:26:38;;;;;;;1.30;1.20;;;21.40;44.00;;;;;;4971969;28;20235;-85
2023/10/26 03:29:03;;;;;;;1.30;1.20;;;21.40;44.00;;;;;;4971694;28;20639;-86
2023/10/26 03:31:31;;;;;;;1.37;1.27;;;21.40;44.00;;;;;;4958787;28;20239;-83
2023/10/26 03:33:57;;;;;;;1.77;1.50;;;21.40;44.00;;;;;;4971557;28;20247;-83
2023/10/26 03:36:22;;;;;;;1.40;1.30;;;21.40;44.00;;;;;;4972708;28;20815;-87
2023/10/26 03:38:50;;;;;;;1.37;1.27;;;21.40;44.00;;;;;;4976030;28;20762;-84
2023/10/26 03:41:16;;;;;;;1.53;1.43;;;21.40;44.00;;;;;;4972225;28;20224;-84
2023/10/26 03:43:41;;;;;;;1.20;1.10;;;21.40;44.00;;;;;;4973162;28;20450;-84
2023/10/26 03:46:07;;;;;;;1.30;1.20;;;21.40;43.90;;;;;;4973287;28;20278;-84
2023/10/26 03:48:34;;;;;;;1.50;1.40;;;21.40;43.90;;;;;;4954392;28;20850;-86
2023/10/26 03:51:00;;;;;;;1.30;1.20;;;21.40;44.00;;;;;;4955607;28;20482;-86
2023/10/26 03:53:26;;;;;;;1.40;1.30;;;21.40;43.90;;;;;;4973460;28;20457;-84
2023/10/26 03:55:52;;;;;;;1.30;1.20;;;21.40;44.00;;;;;;4955775;28;20490;-86
2023/10/26 03:58:17;;;;;;;1.27;1.17;;;21.40;43.90;;;;;;4971332;28;20488;-84
2023/10/26 04:00:43;;;;;;;1.30;1.20;;;21.40;43.90;;;;;;4970195;28;20236;-83
2023/10/26 04:03:09;;;;;;;1.40;1.30;;;21.40;43.90;;;;;;4952273;28;20675;-83
2023/10/26 04:05:34;;;;;;;1.20;1.10;;;21.40;43.90;;;;;;4975397;28;20548;-83
2023/10/26 04:08:04;;;;;;;1.60;1.50;;;21.40;43.90;;;;;;4971415;28;20794;-87
2023/10/26 04:10:29;;;;;;;1.37;1.10;;;21.40;43.90;;;;;;4973491;28;20224;-84
2023/10/26 04:12:55;;;;;;;1.03;1.00;;;21.40;43.90;;;;;;4972908;28;20511;-83
2023/10/26 04:15:21;;;;;;;1.33;1.23;;;21.40;43.90;;;;;;4953052;28;20251;-88
2023/10/26 04:17:46;;;;;;;1.50;1.40;;;21.40;43.80;;;;;;4955772;28;20232;-87
2023/10/26 04:20:12;;;;;;;1.40;1.30;;;21.40;43.80;;;;;;4971928;28;20980;-85
2023/10/26 04:22:37;;;;;;;1.57;1.20;;;21.40;43.70;;;;;;4970374;28;20227;-83
2023/10/26 04:25:04;;;;;;;1.30;1.20;;;21.50;43.70;;;;;;4969832;28;20228;-85
2023/10/26 04:27:34;;;;;;;1.30;1.20;;;21.50;43.70;;;;;;4966675;28;20235;-87
2023/10/26 04:29:59;;;;;;;1.20;1.10;;;21.50;43.70;;;;;;4975649;28;20513;-86
2023/10/26 04:32:25;;;;;;;1.73;1.63;;;21.50;43.70;;;;;;4973656;28;20480;-84
2023/10/26 04:34:51;;;;;;;1.10;1.10;;;21.50;43.60;;;;;;4946841;28;20245;-86
2023/10/26 04:37:16;;;;;;;1.20;1.10;;;21.50;43.80;;;;;;4956276;28;20237;-87
2023/10/26 04:39:43;;;;;;;1.60;1.50;;;21.50;43.60;;;;;;4969268;28;20268;-87
2023/10/26 04:42:10;;;;;;;1.50;1.40;;;21.50;43.60;;;;;;4952697;28;20228;-85
2023/10/26 04:44:35;;;;;;;1.70;1.40;;;21.50;43.60;;;;;;4946681;28;20477;-85
2023/10/26 04:47:01;;;;;;;1.63;1.53;;;21.50;43.60;;;;;;4953702;28;20463;-85
2023/10/26 04:49:28;;;;;;;1.40;1.30;;;21.50;43.60;;;;;;4953618;28;20229;-87
2023/10/26 04:51:53;;;;;;;1.60;1.50;;;21.50;43.60;;;;;;4958199;28;20225;-85
2023/10/26 04:54:19;;;;;;;1.77;1.30;;;21.50;43.60;;;;;;4950212;28;20471;-90
2023/10/26 04:56:44;;;;;;;1.70;1.60;;;21.50;43.60;;;;;;4955934;28;20272;-88
2023/10/26 04:59:11;;;;;;;1.50;1.40;;;21.50;43.60;;;;;;4955524;28;20279;-90
2023/10/26 05:01:37;;;;;;;2.63;1.27;;;21.50;43.50;;;;;;4955302;28;20239;-85
2023/10/26 05:04:02;;;;;;;3.30;1.80;;;21.50;43.50;;;;;;4962477;28;20467;-88
2023/10/26 05:06:28;;;;;;;1.50;1.40;;;21.50;43.50;;;;;;4949012;28;20320;-95
2023/10/26 05:08:54;;;;;;;1.73;1.33;;;21.50;43.50;;;;;;4947565;28;20252;-88
2023/10/26 05:11:20;;;;;;;4.57;1.60;;;21.50;43.60;;;;;;4959392;28;20351;-85
2023/10/26 05:13:45;;;;;;;4.77;1.70;;;21.50;43.50;;;;;;4949603;28;20323;-90
2023/10/26 05:16:11;;;;;;;2.33;1.63;;;21.50;43.50;;;;;;4949458;28;20547;-89
2023/10/26 05:18:37;;;;;;;4.00;1.93;;;21.50;43.50;;;;;;4939113;28;20229;-87
2023/10/26 05:21:03;;;;;;;1.80;1.70;;;21.50;43.60;;;;;;4940808;28;20223;-85
2023/10/26 05:23:28;;;;;;;5.03;1.80;;;21.50;43.50;;;;;;4952545;28;20228;-87
2023/10/26 05:25:54;;;;;;;5.37;1.70;;;21.50;43.60;;;;;;4960553;28;20348;-85
2023/10/26 05:28:19;;;;;;;7.13;1.90;;;21.50;43.50;;;;;;4936308;28;20233;-88
2023/10/26 05:30:47;;;;;;;2.37;2.00;;;21.50;43.60;;;;;;4940484;28;20232;-88
2023/10/26 05:33:15;;;;;;;1.90;1.80;;;21.50;43.60;;;;;;4947475;28;20243;-84
2023/10/26 05:35:40;;;;;;;3.03;1.57;;;21.50;43.70;;;;;;4952696;28;20608;-87
2023/10/26 05:38:06;;;;;;;2.00;1.90;;;21.50;43.70;;;;;;4957437;28;20512;-85
2023/10/26 05:40:32;;;;;;;2.80;1.90;;;21.50;43.80;;;;;;4963035;28;20227;-85
2023/10/26 05:42:57;;;;;;;4.43;1.60;;;21.50;43.70;;;;;;4972413;28;20454;-87
2023/10/26 05:45:23;;;;;;;3.03;1.80;;;21.50;43.70;;;;;;4967363;28;20288;-84
2023/10/26 05:47:55;;;;;;;2.27;2.00;;;21.50;43.70;;;;;;4967279;28;20243;-85
2023/10/26 05:50:21;;;;;;;2.20;1.60;;;21.50;43.70;;;;;;4965829;28;21095;-85
2023/10/26 05:52:47;;;;;;;2.80;1.83;;;21.50;43.70;;;;;;4949855;28;20473;-84
2023/10/26 05:55:13;;;;;;;2.10;1.90;;;21.50;43.70;;;;;;4965257;28;20238;-85
2023/10/26 05:57:39;;;;;;;2.90;2.10;;;21.50;43.70;;;;;;4952294;28;21051;-86
2023/10/26 06:00:06;;;;;;;2.73;1.93;;;21.50;43.70;;;;;;4941679;28;20476;-84
2023/10/26 06:02:33;;;;;;;2.37;2.17;;;21.50;43.80;;;;;;4960586;28;20232;-85
2023/10/26 06:04:58;;;;;;;4.27;2.00;;;21.50;43.80;;;;;;4943726;28;20461;-90
2023/10/26 06:07:24;;;;;;;2.77;1.90;;;21.50;43.80;;;;;;4985280;28;21103;-86
2023/10/26 06:09:50;;;;;;;2.17;1.60;;;21.50;43.70;;;;;;4965236;28;20227;-86
2023/10/26 06:12:16;;;;;;;1.97;1.80;;;21.50;43.70;;;;;;4948932;28;20306;-85
2023/10/26 06:14:42;;;;;;;3.43;2.10;;;21.50;43.70;;;;;;4952644;28;20906;-86
2023/10/26 06:17:08;;;;;;;2.40;2.20;;;21.50;43.70;;;;;;4956480;28;20477;-85
2023/10/26 06:19:34;;;;;;;3.57;1.90;;;21.50;43.80;;;;;;4953203;28;20295;-89
2023/10/26 06:21:59;;;;;;;2.40;2.17;;;21.50;43.80;;;;;;4968504;28;20960;-85
2023/10/26 06:24:27;;;;;;;2.40;2.20;;;21.50;43.80;;;;;;4952717;28;20463;-84
2023/10/26 06:26:52;;;;;;;3.07;1.80;;;21.50;43.80;;;;;;4957139;28;20244;-84
2023/10/26 06:29:19;;;;;;;2.07;1.87;;;21.50;43.80;;;;;;4945590;28;20818;-84
2023/10/26 06:31:45;;;;;;;2.57;2.27;;;21.50;43.80;;;;;;4952650;28;20232;-84
2023/10/26 06:34:11;;;;;;;2.40;2.00;;;21.50;43.80;;;;;;4967988;28;20487;-85
2023/10/26 06:36:36;;;;;;;2.13;1.60;;;21.50;43.80;;;;;;4970016;28;20496;-90
2023/10/26 06:39:02;;;;;;;2.70;1.97;;;21.50;43.80;;;;;;4970095;28;20818;-87
2023/10/26 06:41:28;;;;;;;1.70;1.60;;;21.50;43.80;;;;;;4966796;28;20763;-85
2023/10/26 06:43:55;;;;;;;2.47;2.27;;;21.50;43.80;;;;;;4974124;28;20310;-85
2023/10/26 06:46:21;;;;;;;9.50;2.20;;;21.50;43.80;;;;;;4970213;28;20224;-87
2023/10/26 06:48:47;;;;;;;3.23;2.50;;;21.50;43.80;;;;;;4958328;28;20455;-85
2023/10/26 06:51:12;;;;;;;2.60;1.80;;;21.50;43.80;;;;;;4977830;28;20224;-85
2023/10/26 06:53:38;;;;;;;2.50;2.10;;;21.50;43.80;;;;;;4973878;28;20229;-88
2023/10/26 06:56:10;;;;;;;2.43;2.30;;;21.50;43.80;;;;;;4974788;28;20317;-84
2023/10/26 06:58:36;;;;;;;2.60;2.40;;;21.50;43.80;;;;;;4975604;28;20260;-85
2023/10/26 07:01:06;;;;;;;3.10;2.13;;;21.50;43.90;;;;;;4976826;28;20501;-85
2023/10/26 07:03:32;;;;;;;2.60;1.70;;;21.50;43.90;;;;;;4975573;28;20251;-86
2023/10/26 07:06:04;;;;;;;2.27;1.70;;;21.50;43.80;;;;;;4992599;28;20607;-86
2023/10/26 07:08:31;;;;;;;1.73;1.63;;;21.50;43.90;;;;;;4981350;28;20311;-84
2023/10/26 07:10:59;;;;;;;2.57;2.13;;;21.50;44.00;;;;;;4968000;28;20535;-89
2023/10/26 07:13:25;;;;;;;2.00;1.90;;;21.50;44.00;;;;;;4972819;28;20812;-88
2023/10/26 07:15:50;;;;;;;2.10;2.00;;;21.50;43.90;;;;;;4968538;28;21056;-85
2023/10/26 07:18:18;;;;;;;3.20;1.80;;;21.50;43.90;;;;;;4970264;28;20979;-85
2023/10/26 07:20:44;;;;;;;2.37;2.20;;;21.50;43.90;;;;;;4975491;28;20822;-84
2023/10/26 07:23:10;;;;;;;2.20;2.10;;;21.50;43.90;;;;;;4970372;28;20469;-85
2023/10/26 07:25:35;;;;;;;2.40;2.03;;;21.50;43.90;;;;;;4971798;28;20472;-86
2023/10/26 07:28:02;;;;;;;2.00;1.90;;;21.50;43.90;;;;;;4965124;28;20316;-85
2023/10/26 07:30:27;;;;;;;1.90;1.80;;;21.50;43.90;;;;;;4972505;28;20675;-85
2023/10/26 07:32:53;;;;;;;1.87;1.77;;;21.50;44.00;;;;;;4971154;28;20532;-85
2023/10/26 07:35:18;;;;;;;2.60;2.40;;;21.50;44.00;;;;;;4973703;28;20228;-85
2023/10/26 07:37:44;;;;;;;2.70;2.50;;;21.50;43.90;;;;;;4955253;28;20260;-86
2023/10/26 07:40:10;;;;;;;2.10;2.00;;;21.50;43.90;;;;;;4971961;28;20463;-85
2023/10/26 07:42:36;;;;;;;2.03;1.93;;;21.50;43.90;;;;;;4971899;28;21706;-85
2023/10/26 07:45:01;;;;;;;2.10;2.00;;;21.50;43.90;;;;;;4954921;28;20680;-87
2023/10/26 07:47:27;;;;;;;1.83;1.73;;;21.50;44.00;;;;;;4973245;28;20228;-87
2023/10/26 07:49:52;;;;;;;2.37;2.17;;;21.50;44.00;;;;;;4977876;28;20217;-86
2023/10/26 07:52:18;;;;;;;2.10;1.90;;;21.50;44.00;;;;;;4966733;28;20232;-86
2023/10/26 07:54:44;;;;;;;2.37;2.10;;;21.50;44.00;;;;;;4972434;28;21081;-85
2023/10/26 07:57:09;;;;;;;2.40;2.20;;;21.50;44.00;;;;;;4969146;28;20236;-85
2023/10/26 07:59:35;;;;;;;2.40;1.73;;;21.50;44.00;;;;;;4975144;28;20227;-88
2023/10/26 08:02:01;;;;;;;2.00;1.90;;;21.50;44.10;;;;;;4969005;28;20688;-87
2023/10/26 08:04:29;;;;;;;4.67;2.20;;;21.50;44.00;;;;;;4972936;28;20302;-86
2023/10/26 08:06:55;;;;;;;2.10;2.00;;;21.50;44.10;;;;;;4954645;28;20938;-86
2023/10/26 08:09:20;;;;;;;1.87;1.77;;;21.50;44.10;;;;;;4957595;28;20464;-88
2023/10/26 08:11:46;;;;;;;2.27;2.17;;;21.50;44.10;;;;;;4961205;28;20230;-88
2023/10/26 08:14:12;;;;;;;1.80;1.70;;;21.50;44.10;;;;;;4974517;28;21231;-86
2023/10/26 08:16:39;;;;;;;1.70;1.60;;;21.50;44.10;;;;;;4950159;28;20247;-86
2023/10/26 08:19:04;;;;;;;1.90;1.80;;;21.50;44.20;;;;;;4971305;28;20228;-86
2023/10/26 08:21:30;;;;;;;2.53;2.10;;;21.50;44.10;;;;;;4969468;28;20466;-85
2023/10/26 08:23:56;;;;;;;3.60;1.80;;;21.50;44.10;;;;;;4985489;28;20280;-86
2023/10/26 08:26:24;;;;;;;2.10;2.00;;;21.50;44.10;;;;;;4973230;28;21297;-85
2023/10/26 08:28:49;;;;;;;1.70;1.60;;;21.50;44.10;;;;;;4944465;28;20229;-87
2023/10/26 08:31:15;;;;;;;1.60;1.50;;;21.50;44.10;;;;;;4958173;28;21067;-87
2023/10/26 08:33:40;;;;;;;4.13;2.30;;;21.50;44.10;;;;;;4988721;28;20244;-86
2023/10/26 08:36:06;;;;;;;3.87;1.93;;;21.50;44.10;;;;;;4971623;28;20236;-88
2023/10/26 08:38:32;;;;;;;1.90;1.80;;;21.50;44.10;;;;;;4972577;28;20671;-86
2023/10/26 08:40:58;;;;;;;5.33;2.00;;;21.50;44.10;;;;;;4968214;28;20310;-85
2023/10/26 08:43:24;;;;;;;4.93;2.00;;;21.50;44.20;;;;;;4973371;28;20286;-88
2023/10/26 08:45:52;;;;;;;2.30;1.60;;;21.50;44.20;;;;;;4952389;28;20454;-85
2023/10/26 08:48:19;;;;;;;2.13;2.03;;;21.50;44.10;;;;;;4976458;28;20235;-86
2023/10/26 08:50:48;;;;;;;1.70;1.60;;;21.50;44.20;;;;;;4977389;28;20463;-85
2023/10/26 08:53:15;;;;;;;2.70;1.70;;;21.50;44.10;;;;;;4961558;28;20462;-85
2023/10/26 08:55:42;;;;;;;2.00;1.90;;;21.50;44.20;;;;;;4973424;28;20468;-87
2023/10/26 08:58:08;;;;;;;1.87;1.67;;;21.50;44.20;;;;;;4963639;28;20529;-85
2023/10/26 09:00:36;;;;;;;1.80;1.70;;;21.50;44.20;;;;;;4968118;28;20990;-85
2023/10/26 09:03:02;;;;;;;1.83;1.73;;;21.50;44.20;;;;;;4954195;28;20469;-85
2023/10/26 09:05:28;;;;;;;1.90;1.73;;;21.40;44.10;;;;;;4972893;28;20977;-87
2023/10/26 09:07:53;;;;;;;1.80;1.60;;;21.50;44.20;;;;;;4957580;28;20225;-86
2023/10/26 09:10:32;;;;;;;2.20;2.10;;;21.50;44.20;;;;;;4973824;28;20227;-86
2023/10/26 09:13:03;;;;;;;2.40;1.97;;;21.50;44.20;;;;;;4954055;28;20635;-86
2023/10/26 09:15:29;;;;;;;1.73;1.63;;;21.50;44.20;;;;;;4973106;28;20488;-89
2023/10/26 09:18:00;;;;;;;2.60;2.37;;;21.50;44.20;;;;;;4958079;28;20806;-86
2023/10/26 09:20:27;;;;;;;2.13;1.93;;;21.50;44.30;;;;;;4956055;28;20656;-87
2023/10/26 09:22:52;;;;;;;2.03;1.93;;;21.50;44.30;;;;;;4960354;28;20539;-86
2023/10/26 09:25:19;;;;;;;1.90;1.80;;;21.50;44.20;;;;;;4969733;28;20458;-86
2023/10/26 09:27:45;;;;;;;2.00;1.90;;;21.50;44.20;;;;;;4957814;28;20228;-85
2023/10/26 09:30:25;;;;;;;1.67;1.57;;;21.50;44.30;;;;;;4974477;28;20526;-85
2023/10/26 09:32:51;;;;;;;1.90;1.80;;;21.50;44.30;;;;;;4976212;28;20511;-87
2023/10/26 09:35:29;;;;;;;2.73;1.83;;;21.50;44.30;;;;;;4972302;28;20823;-88
2023/10/26 09:37:55;;;;;;;2.13;1.97;;;21.50;44.30;;;;;;4972052;28;20242;-86
2023/10/26 09:40:25;;;;;;;2.10;1.90;;;21.50;44.40;;;;;;4961827;28;20565;-87
2023/10/26 09:42:51;;;;;;;2.00;1.80;;;21.50;44.40;;;;;;4966270;28;20466;-86
2023/10/26 09:45:18;;;;;;;1.60;1.50;;;21.50;44.40;;;;;;4973600;28;20805;-85
2023/10/26 09:47:45;;;;;;;2.30;2.10;;;21.50;44.40;;;;;;4977218;28;20476;-86
2023/10/26 09:50:11;;;;;;;2.40;1.80;;;21.50;44.40;;;;;;4976170;28;20471;-85
2023/10/26 09:52:37;;;;;;;2.60;2.00;;;21.50;44.50;;;;;;4960129;28;20872;-86
2023/10/26 09:55:06;;;;;;;2.23;1.93;;;21.50;44.60;;;;;;4973191;28;20227;-89
2023/10/26 09:57:42;;;;;;;1.70;1.60;;;21.50;44.60;;;;;;4971943;28;20489;-87
2023/10/26 10:00:11;;;;;;;2.07;1.60;;;21.50;44.60;;;;;;4973554;28;21066;-88
2023/10/26 10:02:36;;;;;;;2.30;1.80;;;21.50;44.60;;;;;;4974691;28;20484;-87
2023/10/26 10:05:02;;;;;;;2.40;1.53;;;21.50;44.60;;;;;;4955815;28;21014;-89
2023/10/26 10:07:42;;;;;;;1.77;1.67;;;21.50;44.60;;;;;;4973963;28;20630;-88
2023/10/26 10:10:13;;;;;;;3.13;2.00;;;21.50;44.60;;;;;;4974076;28;20236;-86
2023/10/26 10:12:42;;;;;;;2.20;2.00;;;21.50;44.70;;;;;;4958882;28;20553;-87
2023/10/26 10:15:13;;;;;;;1.70;1.60;;;21.50;44.70;;;;;;4975104;28;20476;-85
2023/10/26 10:17:45;;;;;;;1.73;1.63;;;21.50;44.70;;;;;;4975910;28;21047;-88
2023/10/26 10:20:19;;;;;;;1.63;1.50;;;21.50;44.70;;;;;;4975946;28;20477;-86
2023/10/26 10:22:48;;;;;;;2.93;1.60;;;21.50;44.80;;;;;;4978473;28;20453;-86
2023/10/26 10:25:17;;;;;;;1.80;1.70;;;21.50;44.80;;;;;;4965173;28;20512;-84
2023/10/26 10:27:49;;;;;;;1.83;1.60;;;21.50;44.80;;;;;;4977285;28;20488;-85
2023/10/26 10:30:18;;;;;;;1.90;1.80;;;21.50;44.80;;;;;;4987567;28;20988;-86
2023/10/26 10:32:46;;;;;;;2.13;2.03;;;21.50;44.90;;;;;;4983687;28;20490;-86
2023/10/26 10:35:35;;;;;;;3.40;2.20;;;21.50;44.90;;;;;;4981583;28;20560;-87
2023/10/26 10:38:13;;;;;;;1.90;1.70;;;21.50;44.80;;;;;;4972636;28;20484;-89
2023/10/26 10:40:54;;;;;;;1.80;1.70;;;21.50;44.90;;;;;;4983080;28;20557;-86
2023/10/26 10:43:32;;;;;;;2.80;1.90;;;21.50;44.90;;;;;;4984190;28;20552;-86
2023/10/26 10:46:26;;;;;;;1.97;1.77;;;21.50;45.00;;;;;;4983964;28;20460;-87
2023/10/26 10:49:08;;;;;;;1.90;1.60;;;21.50;44.90;;;;;;4979772;28;20466;-86
2023/10/26 10:51:35;;;;;;;2.30;2.10;;;21.50;45.00;;;;;;4981233;28;20564;-87
2023/10/26 10:54:04;;;;;;;3.80;2.13;;;21.50;45.00;;;;;;4963972;28;20470;-89
2023/10/26 10:56:41;;;;;;;4.67;1.90;;;21.50;45.00;;;;;;4981739;28;20474;-89
2023/10/26 10:59:22;;;;;;;1.60;1.50;;;21.60;45.00;;;;;;4977321;28;20443;-88
2023/10/26 11:01:48;;;;;;;1.80;1.70;;;21.60;45.00;;;;;;4977729;28;20466;-89
2023/10/26 11:04:15;;;;;;;1.93;1.83;;;21.60;45.10;;;;;;4978336;28;20467;-88
2023/10/26 11:06:46;;;;;;;2.23;1.60;;;21.60;45.00;;;;;;4978386;28;20470;-88
2023/10/26 11:09:29;;;;;;;1.90;1.70;;;21.60;45.00;;;;;;4976632;28;20532;-88
2023/10/26 11:11:55;;;;;;;2.20;2.00;;;21.60;45.00;;;;;;4979391;28;20505;-88
2023/10/26 11:14:21;;;;;;;1.93;1.70;;;21.50;45.00;;;;;;4976781;28;20531;-88
2023/10/26 11:16:49;;;;;;;2.10;1.90;;;21.60;45.10;;;;;;4975997;28;21002;-89
2023/10/26 11:19:14;;;;;;;1.53;1.43;;;21.60;45.10;;;;;;4974186;28;20542;-87
2023/10/26 11:21:40;;;;;;;1.93;1.80;;;21.60;45.10;;;;;;4974391;28;20850;-87
2023/10/26 11:24:06;;;;;;;2.80;1.43;;;21.60;45.10;;;;;;4961928;28;20237;-87
2023/10/26 11:26:32;;;;;;;1.93;1.80;;;21.60;45.00;;;;;;4976308;28;20232;-88
2023/10/26 11:29:00;;;;;;;2.97;1.70;;;21.60;45.10;;;;;;4975027;28;20469;-89
2023/10/26 11:31:54;;;;;;;4.27;2.00;;;21.60;45.10;;;;;;4974132;28;20263;-87
2023/10/26 11:34:24;;;;;;;2.53;2.00;;;21.60;45.10;;;;;;4969079;28;20482;-89
2023/10/26 11:36:52;;;;;;;3.63;2.00;;;21.60;45.10;;;;;;4980619;28;20463;-87
2023/10/26 11:39:18;;;;;;;2.27;1.50;;;21.60;45.10;;;;;;4975720;28;21017;-88
2023/10/26 11:41:55;;;;;;;2.43;1.80;;;21.60;45.20;;;;;;4977027;28;20493;-87
2023/10/26 11:44:27;;;;;;;12.47;2.40;;;21.60;45.20;;;;;;4979675;28;20313;-88
2023/10/26 11:47:00;;;;;;;1.50;1.40;;;21.60;45.20;;;;;;4976685;28;20552;-88
2023/10/26 11:49:38;;;;;;;2.50;1.50;;;21.60;45.20;;;;;;4992279;28;20576;-87
2023/10/26 11:52:04;;;;;;;2.70;2.07;;;21.60;45.20;;;;;;4974588;28;20450;-87
2023/10/26 11:54:30;;;;;;;2.03;1.60;;;21.60;45.20;;;;;;4989903;28;20457;-87
2023/10/26 11:56:56;;;;;;;2.50;1.70;;;21.60;45.20;;;;;;4963115;28;20536;-87
2023/10/26 11:59:21;;;;;;;1.70;1.60;;;21.60;45.20;;;;;;4958535;28;20236;-87
2023/10/26 12:01:47;;;;;;;2.00;1.73;;;21.60;45.20;;;;;;4962219;28;20266;-88
2023/10/26 12:04:13;;;;;;;2.27;1.80;;;21.50;45.20;;;;;;4977155;28;20252;-87
2023/10/26 12:06:38;;;;;;;1.60;1.50;;;21.60;45.30;;;;;;4974245;28;20310;-88
2023/10/26 12:09:06;;;;;;;1.77;1.67;;;21.60;45.30;;;;;;4950503;28;20467;-88
2023/10/26 12:11:32;;;;;;;2.57;2.37;;;21.60;45.30;;;;;;4966593;28;20853;-88
2023/10/26 12:13:57;;;;;;;2.17;1.67;;;21.60;45.30;;;;;;4970464;28;20489;-88
2023/10/26 12:16:23;;;;;;;2.23;1.60;;;21.60;45.30;;;;;;4975385;28;20548;-87
2023/10/26 12:18:49;;;;;;;1.57;1.47;;;21.60;45.40;;;;;;4964528;28;20299;-87
2023/10/26 12:21:15;;;;;;;1.57;1.47;;;21.60;45.30;;;;;;4962775;28;20805;-88
2023/10/26 12:23:41;;;;;;;1.97;1.60;;;21.60;45.30;;;;;;4973095;28;20239;-88
2023/10/26 12:26:06;;;;;;;3.20;1.40;;;21.60;45.20;;;;;;4973086;28;20462;-87
2023/10/26 12:28:32;;;;;;;3.03;1.63;;;21.60;45.30;;;;;;4970362;28;20231;-87
2023/10/26 12:30:58;;;;;;;1.50;1.40;;;21.60;45.30;;;;;;4965731;28;20232;-86
2023/10/26 12:33:23;;;;;;;1.70;1.60;;;21.60;45.30;;;;;;4975283;28;20236;-86
2023/10/26 12:35:50;;;;;;;1.63;1.53;;;21.60;45.30;;;;;;4964163;28;20228;-86
2023/10/26 12:38:19;;;;;;;1.90;1.70;;;21.60;45.30;;;;;;4965403;28;20681;-87
2023/10/26 12:40:46;;;;;;;1.60;1.50;;;21.60;45.20;;;;;;4980064;28;21339;-85
2023/10/26 12:43:12;;;;;;;1.50;1.40;;;21.60;45.20;;;;;;4965725;28;21157;-87
2023/10/26 12:45:37;;;;;;;2.07;1.60;;;21.60;45.20;;;;;;4961230;28;20466;-86
2023/10/26 12:48:03;;;;;;;1.83;1.73;;;21.60;46.00;;;;;;4965614;28;20584;-87